Aquasurazo — D5NA6 — position and weather

sailwx.info

Track history (hours):
 
Tides and Currents Weather Stations Pressure Air Temp Water Temp Dewpoint Dewpoint Depression Visibility Wind Speed Wind Dir Waves Ship Positions

Aquasurazo

Last reported at 2017-Nov-19 23:02 UTC. Time now 2017-Nov-23 01:50 UTC.
Position N 26°21' W 115°12'.

Length 244 m; draft 13.1 m.

Type: Tanker. MMSI: 636017858.

Date/timePositionNaut miles runAvg speedWind from/ knotsBaromVisibWave heightAir tempDewpointWater temp
2017-Nov-19 23:02N 26°21' W 115°12'111.2
2017-Nov-19 22:57N 26°21' W 115°11'510.9
2017-Nov-19 22:28N 26°17' W 115°08'1710.9
2017-Nov-19 20:56N 26°04' W 114°56'2110.8
2017-Nov-19 19:01N 25°48' W 114°41'010.6
2017-Nov-19 19:00N 25°48' W 114°41'510.9
2017-Nov-19 18:30N 25°44' W 114°37'910.9
2017-Nov-19 17:39N 25°37' W 114°30'210.7
2017-Nov-19 17:29N 25°35' W 114°29'4210.9
2017-Nov-19 13:37N 25°03' W 113°59'211.2
2017-Nov-19 13:28N 25°02' W 113°58'  
Track history (hours):
 
Tides and Currents Weather Stations Pressure Air Temp Water Temp Dewpoint Dewpoint Depression Visibility Wind Speed Wind Dir Waves Ship Positions

Aquasurazo

Last reported at 2017-Nov-19 23:02 UTC. Time now 2017-Nov-23 01:50 UTC.
Position N 26°21' W 115°12'.

Length 244 m; draft 13.1 m.

Type: Tanker. MMSI: 636017858.

Date/timePositionNaut miles runAvg speedWind from/ knotsBaromVisibWave heightAir tempDewpointWater temp
2017-Nov-19 23:02N 26°21' W 115°12'111.2
2017-Nov-19 22:57N 26°21' W 115°11'510.9
2017-Nov-19 22:28N 26°17' W 115°08'1710.9
2017-Nov-19 20:56N 26°04' W 114°56'2110.8
2017-Nov-19 19:01N 25°48' W 114°41'010.6
2017-Nov-19 19:00N 25°48' W 114°41'510.9
2017-Nov-19 18:30N 25°44' W 114°37'910.9
2017-Nov-19 17:39N 25°37' W 114°30'210.7
2017-Nov-19 17:29N 25°35' W 114°29'4210.9
2017-Nov-19 13:37N 25°03' W 113°59'211.2
2017-Nov-19 13:28N 25°02' W 113°58'  

Dump ship's entire track history